createdAt,value
2023-05-03T00:01:46.216Z,7.93
2023-05-03T00:04:15.343Z,7.89
2023-05-03T00:06:44.438Z,7.85
2023-05-03T00:09:12.325Z,7.82
2023-05-03T00:11:39.988Z,7.78
2023-05-03T00:14:07.583Z,7.76
2023-05-03T00:16:35.622Z,7.73
2023-05-03T00:19:03.230Z,7.70
2023-05-03T00:21:31.039Z,7.65
2023-05-03T00:23:58.535Z,7.60
2023-05-03T00:26:27.000Z,7.54
2023-05-03T00:28:54.859Z,7.49
2023-05-03T00:31:22.616Z,7.44
2023-05-03T00:33:50.134Z,7.38
2023-05-03T00:36:17.869Z,7.33
2023-05-03T00:38:45.571Z,7.27
2023-05-03T00:41:15.978Z,7.22
2023-05-03T00:43:43.558Z,7.17
2023-05-03T00:46:16.781Z,7.17
2023-05-03T00:48:46.802Z,7.20
2023-05-03T00:51:15.581Z,7.25
2023-05-03T00:53:43.756Z,7.28
2023-05-03T00:56:12.341Z,7.33
2023-05-03T00:58:40.951Z,7.39
2023-05-03T01:01:08.552Z,7.43
2023-05-03T01:03:38.291Z,7.47
2023-05-03T01:06:12.357Z,7.53
2023-05-03T01:09:01.225Z,7.60
2023-05-03T01:11:49.614Z,7.66
2023-05-03T01:14:21.088Z,7.76
2023-05-03T01:16:50.435Z,7.86
2023-05-03T01:19:29.088Z,7.92
2023-05-03T01:22:20.094Z,7.99
2023-05-03T01:24:48.182Z,8.05
2023-05-03T01:27:15.842Z,8.06
2023-05-03T01:29:44.477Z,8.07
2023-05-03T01:32:15.514Z,8.08
2023-05-03T01:35:04.044Z,8.07
2023-05-03T01:37:31.650Z,8.04
2023-05-03T01:40:02.121Z,7.99
2023-05-03T01:42:30.062Z,7.94
2023-05-03T01:44:57.836Z,7.89
2023-05-03T01:47:25.387Z,7.84
2023-05-03T01:49:53.483Z,7.79
2023-05-03T01:52:22.005Z,7.74
2023-05-03T01:54:49.820Z,7.69
2023-05-03T01:57:17.545Z,7.64
2023-05-03T01:59:45.041Z,7.60
2023-05-03T02:02:12.640Z,7.55
2023-05-03T02:04:41.757Z,7.51
2023-05-03T02:07:09.792Z,7.47
2023-05-03T02:09:37.371Z,7.43
2023-05-03T02:12:05.132Z,7.39
2023-05-03T02:14:33.591Z,7.35
2023-05-03T02:17:03.765Z,7.31
2023-05-03T02:19:31.513Z,7.28
2023-05-03T02:21:59.134Z,7.24
2023-05-03T02:24:26.506Z,7.21
2023-05-03T02:26:54.087Z,7.19
2023-05-03T02:29:21.600Z,7.16
2023-05-03T02:31:49.189Z,7.14
2023-05-03T02:34:16.775Z,7.14
2023-05-03T02:36:44.780Z,7.13
2023-05-03T02:39:12.679Z,7.12
2023-05-03T02:41:40.202Z,7.12
2023-05-03T02:44:08.414Z,7.12
2023-05-03T02:46:36.080Z,7.13
2023-05-03T02:49:03.971Z,7.16
2023-05-03T02:51:31.537Z,7.22
2023-05-03T02:53:59.024Z,7.29
2023-05-03T02:56:27.324Z,7.38
2023-05-03T02:58:55.334Z,7.49
2023-05-03T03:01:23.179Z,7.61
2023-05-03T03:03:51.396Z,7.71
2023-05-03T03:06:19.205Z,7.81
2023-05-03T03:08:46.636Z,7.94
2023-05-03T03:11:14.484Z,8.05
2023-05-03T03:13:42.128Z,8.19
2023-05-03T03:16:10.177Z,8.37
2023-05-03T03:18:38.321Z,8.53
2023-05-03T03:21:06.053Z,8.71
2023-05-03T03:23:33.626Z,8.86
2023-05-03T03:26:01.823Z,9.00
2023-05-03T03:28:29.413Z,9.17
2023-05-03T03:30:57.738Z,9.38
2023-05-03T03:33:26.248Z,9.59
2023-05-03T03:35:55.528Z,9.77
2023-05-03T03:38:23.280Z,9.91
2023-05-03T03:40:55.039Z,10.01
2023-05-03T03:43:22.739Z,10.09
2023-05-03T03:45:50.249Z,10.16
2023-05-03T03:48:18.306Z,10.22
2023-05-03T03:50:45.895Z,10.29
2023-05-03T03:53:13.775Z,10.37
2023-05-03T03:55:41.623Z,10.46
2023-05-03T03:58:09.359Z,10.57
2023-05-03T04:00:37.694Z,10.66
2023-05-03T04:03:09.100Z,10.74
2023-05-03T04:05:36.930Z,10.83
2023-05-03T04:08:04.723Z,10.91
2023-05-03T04:10:32.264Z,10.99
2023-05-03T04:12:59.605Z,11.09
2023-05-03T04:15:27.817Z,11.21
2023-05-03T04:17:57.347Z,11.33
2023-05-03T04:20:25.266Z,11.43
2023-05-03T04:22:52.780Z,11.51
2023-05-03T04:25:22.265Z,11.61
2023-05-03T04:27:56.095Z,11.73
2023-05-03T04:30:25.079Z,11.89
2023-05-03T04:32:56.202Z,12.08
2023-05-03T04:35:23.893Z,12.29
2023-05-03T04:37:52.448Z,12.54
2023-05-03T04:40:22.416Z,12.84
2023-05-03T04:42:57.753Z,13.17
2023-05-03T04:45:25.290Z,13.47
2023-05-03T04:47:52.914Z,13.76
2023-05-03T04:50:20.384Z,14.01
2023-05-03T04:52:49.920Z,14.21
2023-05-03T04:55:17.778Z,14.33
2023-05-03T04:57:45.520Z,14.41
2023-05-03T05:00:14.046Z,14.53
2023-05-03T05:02:45.466Z,14.75
2023-05-03T05:05:12.931Z,15.00
2023-05-03T05:07:40.231Z,15.31
2023-05-03T05:10:09.810Z,15.52
2023-05-03T05:12:37.327Z,15.67
2023-05-03T05:15:05.533Z,15.86
2023-05-03T05:17:32.996Z,16.12
2023-05-03T05:20:01.316Z,16.29
2023-05-03T05:22:29.318Z,16.43
2023-05-03T05:24:59.242Z,16.56
2023-05-03T05:27:27.258Z,16.66
2023-05-03T05:29:54.942Z,16.75
2023-05-03T05:32:22.809Z,16.86
2023-05-03T05:34:56.138Z,16.96
2023-05-03T05:37:25.344Z,17.13
2023-05-03T05:39:53.738Z,17.35
2023-05-03T05:42:22.328Z,17.54
2023-05-03T05:44:50.603Z,17.64
2023-05-03T05:47:18.006Z,17.73
2023-05-03T05:49:46.200Z,17.85
2023-05-03T05:52:13.909Z,17.97
2023-05-03T05:54:42.059Z,18.06
2023-05-03T05:57:09.932Z,18.20
2023-05-03T05:59:37.565Z,18.37
2023-05-03T06:02:04.910Z,18.54
2023-05-03T06:04:32.403Z,18.64
2023-05-03T06:06:59.813Z,18.74
2023-05-03T06:09:27.406Z,18.79
2023-05-03T06:12:00.290Z,18.80
2023-05-03T06:14:29.158Z,18.80
2023-05-03T06:16:56.659Z,18.80
2023-05-03T06:19:25.116Z,18.83
2023-05-03T06:21:52.895Z,18.93
2023-05-03T06:24:21.784Z,19.10
2023-05-03T06:26:52.213Z,19.24
2023-05-03T06:29:19.837Z,19.38
2023-05-03T06:31:47.185Z,19.53
2023-05-03T06:34:17.488Z,19.63
2023-05-03T06:36:44.807Z,19.70
2023-05-03T06:39:12.066Z,19.75
2023-05-03T06:41:39.443Z,19.77
2023-05-03T06:44:07.798Z,19.82
2023-05-03T06:46:35.278Z,19.91
2023-05-03T06:49:02.713Z,20.03
2023-05-03T06:51:31.369Z,20.12
2023-05-03T06:54:17.125Z,20.19
2023-05-03T06:56:44.449Z,20.21
2023-05-03T06:59:11.718Z,20.21
2023-05-03T07:01:39.088Z,20.22
2023-05-03T07:04:06.557Z,20.32
2023-05-03T07:06:40.985Z,20.45
2023-05-03T07:09:16.075Z,20.51
2023-05-03T07:11:50.772Z,20.62
2023-05-03T07:14:18.106Z,20.74
2023-05-03T07:16:45.878Z,20.83
2023-05-03T07:19:13.248Z,20.83
2023-05-03T07:21:40.555Z,20.90
2023-05-03T07:24:08.433Z,20.98
2023-05-03T07:26:35.734Z,20.95
2023-05-03T07:29:02.946Z,20.92
2023-05-03T07:31:30.344Z,20.85
2023-05-03T07:33:57.836Z,20.86
2023-05-03T07:36:25.635Z,20.88
2023-05-03T07:38:52.965Z,20.87
2023-05-03T07:41:20.277Z,20.88
2023-05-03T07:43:47.489Z,20.96
2023-05-03T07:46:14.904Z,20.97
2023-05-03T07:48:42.557Z,21.03
2023-05-03T07:51:09.839Z,21.21
2023-05-03T07:53:37.116Z,21.38
2023-05-03T07:56:04.460Z,21.47
2023-05-03T07:58:39.512Z,21.48
2023-05-03T08:01:07.833Z,21.46
2023-05-03T08:03:35.341Z,21.48
2023-05-03T08:06:02.873Z,21.49
2023-05-03T08:08:32.079Z,21.45
2023-05-03T08:10:59.338Z,21.39
2023-05-03T08:13:26.877Z,21.39
2023-05-03T08:15:54.295Z,21.37
2023-05-03T08:18:23.712Z,21.38
2023-05-03T08:20:53.174Z,21.46
2023-05-03T08:23:22.368Z,21.56
2023-05-03T08:25:49.635Z,21.63
2023-05-03T08:28:16.900Z,21.69
2023-05-03T08:30:44.275Z,21.66
2023-05-03T08:33:11.567Z,21.61
2023-05-03T08:35:39.134Z,21.56
2023-05-03T08:38:06.855Z,21.54
2023-05-03T08:40:37.707Z,21.59
2023-05-03T08:43:07.656Z,21.56
2023-05-03T08:45:35.030Z,21.52
2023-05-03T08:48:05.603Z,21.47
2023-05-03T08:50:32.979Z,21.51
2023-05-03T08:53:00.909Z,21.58
2023-05-03T08:55:28.185Z,21.65
2023-05-03T08:57:55.967Z,21.71
2023-05-03T09:00:28.630Z,21.75
2023-05-03T09:02:56.564Z,21.76
2023-05-03T09:05:23.900Z,21.79
2023-05-03T09:08:01.499Z,21.80
2023-05-03T09:10:29.022Z,21.77
2023-05-03T09:13:02.951Z,21.71
2023-05-03T09:15:30.962Z,21.65
2023-05-03T09:18:17.964Z,21.58
2023-05-03T09:20:52.792Z,21.51
2023-05-03T09:23:29.811Z,21.50
2023-05-03T09:25:57.457Z,21.53
2023-05-03T09:28:25.390Z,21.59
2023-05-03T09:31:04.489Z,21.62
2023-05-03T09:33:31.862Z,21.61
2023-05-03T09:35:59.938Z,21.60
2023-05-03T09:38:34.337Z,21.65
2023-05-03T09:41:10.527Z,21.68
2023-05-03T09:43:48.417Z,21.71
2023-05-03T09:46:16.005Z,21.74
2023-05-03T09:48:43.885Z,21.73
2023-05-03T09:51:11.767Z,21.68
2023-05-03T09:53:39.754Z,21.65
2023-05-03T09:56:12.984Z,21.65
2023-05-03T09:58:40.903Z,21.69
2023-05-03T10:01:09.243Z,21.72
2023-05-03T10:03:49.059Z,21.70
2023-05-03T10:06:16.846Z,21.70
2023-05-03T10:08:46.890Z,21.68
2023-05-03T10:11:14.356Z,21.66
2023-05-03T10:13:41.715Z,21.61
2023-05-03T10:16:11.163Z,21.58
2023-05-03T10:18:41.038Z,21.57
2023-05-03T10:21:10.368Z,21.56
2023-05-03T10:23:37.656Z,21.51
2023-05-03T10:26:10.000Z,21.49
2023-05-03T10:28:37.673Z,21.44
2023-05-03T10:31:05.180Z,21.39
2023-05-03T10:33:34.300Z,21.34
2023-05-03T10:36:05.368Z,21.27
2023-05-03T10:38:33.006Z,21.22
2023-05-03T10:41:03.888Z,21.19
2023-05-03T10:43:34.461Z,21.23
2023-05-03T10:46:02.491Z,21.29
2023-05-03T10:48:30.406Z,21.32
2023-05-03T10:50:58.191Z,21.33
2023-05-03T10:53:31.848Z,21.35
2023-05-03T10:56:08.568Z,21.35
2023-05-03T10:58:39.129Z,21.34
2023-05-03T11:01:07.262Z,21.33
2023-05-03T11:03:37.801Z,21.32
2023-05-03T11:06:05.913Z,21.33
2023-05-03T11:08:38.078Z,21.34
2023-05-03T11:11:10.313Z,21.31
2023-05-03T11:13:37.826Z,21.30
2023-05-03T11:16:08.170Z,21.30
2023-05-03T11:18:35.570Z,21.33
2023-05-03T11:21:05.369Z,21.37
2023-05-03T11:23:32.686Z,21.44
2023-05-03T11:25:59.992Z,21.47
2023-05-03T11:28:27.449Z,21.52
2023-05-03T11:30:55.248Z,21.59
2023-05-03T11:33:22.606Z,21.64
2023-05-03T11:35:49.903Z,21.71
2023-05-03T11:38:17.583Z,21.77
2023-05-03T11:40:45.012Z,21.80
2023-05-03T11:43:12.368Z,21.80
2023-05-03T11:45:41.419Z,21.78
2023-05-03T11:48:09.150Z,21.76
2023-05-03T11:50:51.974Z,21.74
2023-05-03T11:53:19.343Z,21.75
2023-05-03T11:55:48.615Z,21.77
2023-05-03T11:58:16.623Z,21.78
2023-05-03T12:03:33.673Z,21.73
2023-05-03T12:06:02.790Z,21.71
2023-05-03T12:08:36.335Z,21.71
2023-05-03T12:11:06.878Z,21.73
2023-05-03T12:13:39.595Z,21.76
2023-05-03T12:16:13.423Z,21.78
2023-05-03T12:18:48.223Z,21.85
2023-05-03T12:23:50.640Z,21.95
2023-05-03T12:26:19.597Z,22.00
2023-05-03T12:28:47.670Z,22.05
2023-05-03T12:31:17.624Z,22.10
2023-05-03T12:34:01.047Z,22.14
2023-05-03T12:36:37.018Z,22.13
2023-05-03T12:39:09.397Z,22.10
2023-05-03T12:44:10.546Z,22.07
2023-05-03T12:46:39.244Z,22.08
2023-05-03T12:49:08.433Z,22.09
2023-05-03T12:51:36.671Z,22.11
2023-05-03T12:54:10.245Z,22.12
2023-05-03T12:56:40.200Z,22.12
2023-05-03T12:59:39.422Z,22.11
2023-05-03T13:07:00.345Z,22.14
2023-05-03T13:09:37.910Z,22.20
2023-05-03T13:12:15.833Z,22.27
2023-05-03T13:14:43.381Z,22.31
2023-05-03T13:17:10.656Z,22.33
2023-05-03T13:19:38.050Z,22.32
2023-05-03T13:22:05.541Z,22.32
2023-05-03T13:24:32.790Z,22.33
2023-05-03T13:27:00.112Z,22.32
2023-05-03T13:29:27.437Z,22.34
2023-05-03T13:31:54.849Z,22.37
2023-05-03T13:34:22.209Z,22.40
2023-05-03T13:36:49.775Z,22.43
2023-05-03T13:39:17.121Z,22.45
2023-05-03T13:41:46.409Z,22.46
2023-05-03T13:44:15.569Z,22.42
2023-05-03T13:46:43.985Z,22.38
2023-05-03T13:49:11.421Z,22.35
2023-05-03T13:51:38.870Z,22.35
2023-05-03T13:54:06.617Z,22.37
2023-05-03T13:56:34.285Z,22.38
2023-05-03T13:59:01.584Z,22.36
2023-05-03T14:01:29.110Z,22.30
2023-05-03T14:03:56.728Z,22.23
2023-05-03T14:06:24.512Z,22.16
2023-05-03T14:08:54.592Z,22.12
2023-05-03T14:11:22.490Z,22.12
2023-05-03T14:16:35.726Z,22.16
2023-05-03T14:19:04.194Z,22.16
2023-05-03T14:21:32.234Z,22.16
2023-05-03T14:23:59.428Z,22.15
2023-05-03T14:26:27.225Z,22.15
2023-05-03T14:28:54.543Z,22.17
2023-05-03T14:31:22.040Z,22.16
2023-05-03T14:33:49.652Z,22.13
2023-05-03T14:36:17.036Z,22.11
2023-05-03T14:38:44.271Z,22.09
2023-05-03T14:41:11.809Z,22.06
2023-05-03T14:43:39.436Z,22.06
2023-05-03T14:46:08.794Z,22.05
2023-05-03T14:48:36.285Z,22.03
2023-05-03T14:51:04.134Z,21.99
2023-05-03T14:53:31.470Z,21.95
2023-05-03T14:55:58.836Z,21.91
2023-05-03T14:58:26.169Z,21.87
2023-05-03T15:00:53.673Z,21.84
2023-05-03T15:03:21.166Z,21.81
2023-05-03T15:05:49.272Z,21.77
2023-05-03T15:08:20.004Z,21.74
2023-05-03T15:10:48.215Z,21.70
2023-05-03T15:13:16.213Z,21.66
2023-05-03T15:15:44.655Z,21.61
2023-05-03T15:18:12.069Z,21.58
2023-05-03T15:20:39.403Z,21.54
2023-05-03T15:23:06.795Z,21.50
2023-05-03T15:25:34.290Z,21.46
2023-05-03T15:28:04.104Z,21.41
2023-05-03T15:30:33.146Z,21.38
2023-05-03T15:33:02.443Z,21.34
2023-05-03T15:35:29.767Z,21.30
2023-05-03T15:37:57.034Z,21.27
2023-05-03T15:40:26.758Z,21.22
2023-05-03T15:42:54.533Z,21.17
2023-05-03T15:45:23.688Z,21.12
2023-05-03T15:47:51.063Z,21.06
2023-05-03T15:50:18.600Z,21.00
2023-05-03T15:52:49.020Z,20.94
2023-05-03T15:55:17.892Z,20.87
2023-05-03T15:57:46.093Z,20.81
2023-05-03T16:00:16.573Z,20.75
2023-05-03T16:02:44.187Z,20.69
2023-05-03T16:05:12.274Z,20.62
2023-05-03T16:07:39.714Z,20.56
2023-05-03T16:10:09.910Z,20.49
2023-05-03T16:12:37.895Z,20.41
2023-05-03T16:15:05.728Z,20.34
2023-05-03T16:17:35.869Z,20.27
2023-05-03T16:20:05.883Z,20.19
2023-05-03T16:22:33.616Z,20.12
2023-05-03T16:25:01.085Z,20.04
2023-05-03T16:27:28.517Z,19.96
2023-05-03T16:29:56.078Z,19.88
2023-05-03T16:32:23.681Z,19.82
2023-05-03T16:34:51.221Z,19.76
2023-05-03T16:37:19.634Z,19.71
2023-05-03T16:39:47.060Z,19.65
2023-05-03T16:42:14.414Z,19.57
2023-05-03T16:44:41.761Z,19.51
2023-05-03T16:47:09.292Z,19.43
2023-05-03T16:49:36.933Z,19.33
2023-05-03T16:52:04.352Z,19.24
2023-05-03T16:54:31.920Z,19.14
2023-05-03T16:56:59.342Z,19.04
2023-05-03T16:59:28.374Z,18.94
2023-05-03T17:01:55.932Z,18.84
2023-05-03T17:04:23.705Z,18.74
2023-05-03T17:06:51.413Z,18.64
2023-05-03T17:09:19.091Z,18.52
2023-05-03T17:11:46.495Z,18.41
2023-05-03T17:14:13.885Z,18.29
2023-05-03T17:16:41.535Z,18.16
2023-05-03T17:19:10.015Z,18.03
2023-05-03T17:21:37.700Z,17.88
2023-05-03T17:24:05.334Z,17.74
2023-05-03T17:26:32.723Z,17.60
2023-05-03T17:29:00.107Z,17.46
2023-05-03T17:31:27.921Z,17.31
2023-05-03T17:33:55.362Z,17.17
2023-05-03T17:36:23.096Z,17.05
2023-05-03T17:38:50.829Z,16.93
2023-05-03T17:41:18.192Z,16.82
2023-05-03T17:43:45.652Z,16.70
2023-05-03T17:46:14.585Z,16.59
2023-05-03T17:48:47.816Z,16.49
2023-05-03T17:51:15.145Z,16.39
2023-05-03T17:53:43.516Z,16.30
2023-05-03T17:56:14.691Z,16.22
2023-05-03T17:58:42.142Z,16.16
2023-05-03T18:01:11.246Z,16.09
2023-05-03T18:03:38.775Z,16.00
2023-05-03T18:06:07.933Z,15.92
2023-05-03T18:08:35.517Z,15.83
2023-05-03T18:11:02.893Z,15.73
2023-05-03T18:13:32.493Z,15.65
2023-05-03T18:16:00.030Z,15.58
2023-05-03T18:18:27.591Z,15.51
2023-05-03T18:21:00.967Z,15.48
2023-05-03T18:23:28.775Z,15.49
2023-05-03T18:25:56.470Z,15.49
2023-05-03T18:28:24.496Z,15.47
2023-05-03T18:30:53.334Z,15.44
2023-05-03T18:33:21.038Z,15.39
2023-05-03T18:35:52.112Z,15.35
2023-05-03T18:38:20.990Z,15.30
2023-05-03T18:40:49.170Z,15.26
2023-05-03T18:43:16.900Z,15.22
2023-05-03T18:45:44.402Z,15.18
2023-05-03T18:48:12.322Z,15.15
2023-05-03T18:50:43.202Z,15.10
2023-05-03T18:53:11.126Z,15.05
2023-05-03T18:55:38.547Z,15.00
2023-05-03T18:58:06.248Z,14.95
2023-05-03T19:00:33.762Z,14.90
2023-05-03T19:03:01.604Z,14.83
2023-05-03T19:05:29.419Z,14.76
2023-05-03T19:07:56.937Z,14.69
2023-05-03T19:10:24.860Z,14.62
2023-05-03T19:12:53.714Z,14.55
2023-05-03T19:15:21.213Z,14.48
2023-05-03T19:17:48.621Z,14.40
2023-05-03T19:20:16.119Z,14.34
2023-05-03T19:22:43.605Z,14.27
2023-05-03T19:25:11.177Z,14.19
2023-05-03T19:27:38.634Z,14.12
2023-05-03T19:30:07.131Z,14.03
2023-05-03T19:32:39.570Z,13.96
2023-05-03T19:35:09.386Z,13.89
2023-05-03T19:37:37.216Z,13.83
2023-05-03T19:40:05.831Z,13.77
2023-05-03T19:42:33.618Z,13.72
2023-05-03T19:45:02.855Z,13.65
2023-05-03T19:47:30.317Z,13.59
2023-05-03T19:49:57.992Z,13.51
2023-05-03T19:52:25.466Z,13.43
2023-05-03T19:54:52.897Z,13.36
2023-05-03T19:57:20.250Z,13.29
2023-05-03T19:59:48.325Z,13.21
2023-05-03T20:02:17.323Z,13.13
2023-05-03T20:04:45.062Z,13.05
2023-05-03T20:07:12.636Z,12.96
2023-05-03T20:09:40.144Z,12.89
2023-05-03T20:12:07.885Z,12.82
2023-05-03T20:14:35.390Z,12.75
2023-05-03T20:17:02.936Z,12.69
2023-05-03T20:19:30.530Z,12.63
2023-05-03T20:21:58.053Z,12.59
2023-05-03T20:24:25.377Z,12.54
2023-05-03T20:26:53.883Z,12.51
2023-05-03T20:29:21.575Z,12.46
2023-05-03T20:31:51.199Z,12.41
2023-05-03T20:34:18.886Z,12.36
2023-05-03T20:36:46.363Z,12.31
2023-05-03T20:39:14.450Z,12.26
2023-05-03T20:41:42.229Z,12.22
2023-05-03T20:44:09.887Z,12.17
2023-05-03T20:46:38.956Z,12.15
2023-05-03T20:49:08.314Z,12.12
2023-05-03T20:51:37.690Z,12.10
2023-05-03T20:54:05.121Z,12.07
2023-05-03T20:56:33.691Z,12.04
2023-05-03T20:59:01.268Z,12.01
2023-05-03T21:01:28.837Z,11.97
2023-05-03T21:03:57.391Z,11.93
2023-05-03T21:06:25.150Z,11.89
2023-05-03T21:08:53.309Z,11.85
2023-05-03T21:11:21.124Z,11.81
2023-05-03T21:13:48.814Z,11.78
2023-05-03T21:16:16.337Z,11.76
2023-05-03T21:18:44.208Z,11.73
2023-05-03T21:21:11.780Z,11.70
2023-05-03T21:23:39.299Z,11.66
2023-05-03T21:26:06.859Z,11.62
2023-05-03T21:28:34.466Z,11.58
2023-05-03T21:31:02.030Z,11.54
2023-05-03T21:33:29.671Z,11.50
2023-05-03T21:35:57.269Z,11.47
2023-05-03T21:38:25.104Z,11.44
2023-05-03T21:40:52.856Z,11.41
2023-05-03T21:43:20.445Z,11.39
2023-05-03T21:45:48.731Z,11.38
2023-05-03T21:48:16.397Z,11.36
2023-05-03T21:50:45.153Z,11.35
2023-05-03T21:53:12.748Z,11.35
2023-05-03T21:55:40.237Z,11.35
2023-05-03T21:58:07.857Z,11.35
2023-05-03T22:00:36.705Z,11.35
2023-05-03T22:03:04.566Z,11.34
2023-05-03T22:05:32.482Z,11.31
2023-05-03T22:08:00.342Z,11.29
2023-05-03T22:10:28.085Z,11.25
2023-05-03T22:12:55.980Z,11.22
2023-05-03T22:15:23.993Z,11.17
2023-05-03T22:17:51.667Z,11.13
2023-05-03T22:20:19.203Z,11.10
2023-05-03T22:22:46.800Z,11.07
2023-05-03T22:25:28.920Z,11.04
2023-05-03T22:27:57.883Z,11.01
2023-05-03T22:30:25.415Z,10.98
2023-05-03T22:32:53.804Z,10.95
2023-05-03T22:35:21.665Z,10.92
2023-05-03T22:37:49.225Z,10.90
2023-05-03T22:40:16.844Z,10.88
2023-05-03T22:42:44.396Z,10.84
2023-05-03T22:45:12.400Z,10.82
2023-05-03T22:47:40.181Z,10.79
2023-05-03T22:50:08.498Z,10.76
2023-05-03T22:52:36.078Z,10.73
2023-05-03T22:55:04.150Z,10.69
2023-05-03T22:57:31.883Z,10.67
2023-05-03T22:59:59.933Z,10.65
2023-05-03T23:02:27.923Z,10.63
2023-05-03T23:04:55.545Z,10.60
2023-05-03T23:07:23.035Z,10.58
2023-05-03T23:09:50.647Z,10.55
2023-05-03T23:12:18.201Z,10.52
2023-05-03T23:14:46.565Z,10.50
2023-05-03T23:17:14.237Z,10.47
2023-05-03T23:19:42.362Z,10.44
2023-05-03T23:22:10.870Z,10.41
2023-05-03T23:24:39.991Z,10.37
2023-05-03T23:27:08.601Z,10.34
2023-05-03T23:29:36.991Z,10.31
2023-05-03T23:32:05.099Z,10.28
2023-05-03T23:34:33.119Z,10.26
2023-05-03T23:37:01.078Z,10.23
2023-05-03T23:39:28.783Z,10.20
2023-05-03T23:41:56.420Z,10.18
2023-05-03T23:44:24.012Z,10.15
2023-05-03T23:46:51.521Z,10.13
2023-05-03T23:49:20.264Z,10.12
2023-05-03T23:51:47.806Z,10.10
2023-05-03T23:54:15.479Z,10.10
2023-05-03T23:56:43.007Z,10.10
2023-05-03T23:59:10.581Z,10.08
